Time;durP1;ratioP1;P1;durP2;ratioP2;P2;SDS_P1;SDS_P2;PMS_P1;PMS_P2;Temp;Humidity;BMP_temperature;BMP_pressure;BME280_temperature;BME280_humidity;BME280_pressure;Samples;Min_cycle;Max_cycle;Signal;HPM_P1;HPM_P2
2022/04/19 00:02:01;;;;;;;0.28;0.28;;;19.90;56.10;;;;;;4974254;28;20046;-16
2022/04/19 00:04:27;;;;;;;0.47;0.40;;;20.00;56.20;;;;;;4977017;28;20035;-15
2022/04/19 00:06:52;;;;;;;0.47;0.43;;;19.90;56.20;;;;;;4976454;28;20096;-15
2022/04/19 00:09:18;;;;;;;0.35;0.30;;;19.90;56.20;;;;;;4976077;28;20404;-15
2022/04/19 00:11:44;;;;;;;0.50;0.30;;;20.00;56.20;;;;;;4976440;28;20039;-15
2022/04/19 00:14:10;;;;;;;0.77;0.32;;;19.90;56.20;;;;;;4974185;28;20033;-15
2022/04/19 00:16:36;;;;;;;0.50;0.30;;;20.00;56.20;;;;;;4975576;28;20068;-15
2022/04/19 00:19:02;;;;;;;0.47;0.20;;;19.90;56.20;;;;;;4975926;28;20123;-16
2022/04/19 00:21:28;;;;;;;0.30;0.30;;;19.90;56.30;;;;;;4976802;28;20059;-15
2022/04/19 00:23:53;;;;;;;0.47;0.30;;;19.90;56.30;;;;;;4976297;28;20071;-15
2022/04/19 00:26:19;;;;;;;0.70;0.20;;;19.90;56.90;;;;;;4974691;28;20053;-15
2022/04/19 00:28:45;;;;;;;0.38;0.32;;;19.90;56.30;;;;;;4976719;28;20519;-15
2022/04/19 00:31:11;;;;;;;0.88;0.28;;;19.90;56.30;;;;;;4976057;28;20043;-15
2022/04/19 00:33:42;;;;;;;0.50;0.35;;;19.90;56.40;;;;;;4985075;28;20520;-15
2022/04/19 00:36:08;;;;;;;0.32;0.20;;;19.90;56.40;;;;;;4995571;28;20038;-15
2022/04/19 00:38:34;;;;;;;0.28;0.20;;;19.80;56.40;;;;;;4995954;28;20185;-16
2022/04/19 00:40:59;;;;;;;0.25;0.20;;;19.90;56.40;;;;;;4994535;28;20047;-15
2022/04/19 00:43:26;;;;;;;0.17;0.17;;;19.80;56.40;;;;;;4995471;28;20042;-14
2022/04/19 00:45:52;;;;;;;0.30;0.30;;;19.80;57.10;;;;;;5024728;28;20546;-16
2022/04/19 00:48:21;;;;;;;0.40;0.32;;;19.90;56.50;;;;;;4973858;28;20436;-19
2022/04/19 00:50:50;;;;;;;0.73;0.30;;;19.80;56.50;;;;;;4976360;28;20047;-15
2022/04/19 00:53:17;;;;;;;0.40;0.30;;;19.80;57.10;;;;;;4974568;28;20049;-15
2022/04/19 00:55:42;;;;;;;0.30;0.30;;;19.80;56.60;;;;;;4993127;28;20056;-15
2022/04/19 00:58:08;;;;;;;0.35;0.30;;;19.80;56.60;;;;;;4995447;28;20070;-15
2022/04/19 01:00:33;;;;;;;0.28;0.20;;;19.80;56.60;;;;;;4995587;28;20034;-15
2022/04/19 01:02:59;;;;;;;0.32;0.30;;;19.80;56.70;;;;;;4971869;28;20058;-15
2022/04/19 01:05:25;;;;;;;0.30;0.30;;;19.80;56.70;;;;;;4975816;28;20050;-15
2022/04/19 01:07:50;;;;;;;0.20;0.20;;;19.80;56.60;;;;;;4990181;28;20046;-17
2022/04/19 01:10:16;;;;;;;0.35;0.30;;;19.80;56.70;;;;;;4991631;28;20049;-15
2022/04/19 01:15:26;;;;;;;0.82;0.40;;;19.80;56.70;;;;;;4976113;28;20066;-16
2022/04/19 01:17:51;;;;;;;0.22;0.22;;;19.80;56.60;;;;;;4992551;28;20050;-16
2022/04/19 01:20:18;;;;;;;0.70;0.32;;;19.80;56.70;;;;;;4974400;28;20495;-15
2022/04/19 01:22:46;;;;;;;0.50;0.30;;;19.80;56.80;;;;;;4975882;28;20051;-16
2022/04/19 01:25:12;;;;;;;0.90;0.30;;;19.80;56.80;;;;;;4972306;28;20431;-15
2022/04/19 01:27:38;;;;;;;0.28;0.28;;;19.80;56.80;;;;;;4957032;28;20055;-15
2022/04/19 01:30:08;;;;;;;0.38;0.20;;;19.80;56.80;;;;;;4991345;28;20043;-20
2022/04/19 01:32:34;;;;;;;0.75;0.40;;;19.80;56.80;;;;;;4973048;28;20051;-15
2022/04/19 01:35:13;;;;;;;0.20;0.20;;;19.80;56.80;;;;;;4974703;28;20448;-16
2022/04/19 01:37:44;;;;;;;0.47;0.20;;;19.80;56.80;;;;;;4974026;28;20046;-15
2022/04/19 01:40:16;;;;;;;0.38;0.38;;;19.80;56.90;;;;;;4977202;28;20105;-17
2022/04/19 01:42:44;;;;;;;0.52;0.30;;;19.70;56.80;;;;;;4976202;28;20559;-16
2022/04/19 01:45:10;;;;;;;0.35;0.30;;;19.80;56.90;;;;;;4976344;28;20038;-15
2022/04/19 01:47:39;;;;;;;0.30;0.30;;;19.70;56.80;;;;;;4978752;28;20057;-16
2022/04/19 01:50:09;;;;;;;0.32;0.30;;;19.70;56.90;;;;;;4978096;28;20182;-17
2022/04/19 01:52:35;;;;;;;0.50;0.40;;;19.70;56.90;;;;;;4978709;28;20062;-19
2022/04/19 01:55:01;;;;;;;0.30;0.30;;;19.70;56.90;;;;;;5009280;28;20051;-16
2022/04/19 01:57:26;;;;;;;0.40;0.38;;;19.70;56.90;;;;;;4988754;28;20054;-15
2022/04/19 01:59:53;;;;;;;0.40;0.20;;;19.70;56.90;;;;;;4998816;28;20065;-15
2022/04/19 02:02:18;;;;;;;0.30;0.30;;;19.70;56.90;;;;;;4997136;28;20077;-16
2022/04/19 02:04:44;;;;;;;0.20;0.20;;;19.70;56.90;;;;;;4997366;28;20054;-16
2022/04/19 02:07:10;;;;;;;0.30;0.30;;;19.70;57.00;;;;;;4998062;28;20503;-18
2022/04/19 02:09:36;;;;;;;0.50;0.20;;;19.70;56.90;;;;;;4960808;28;20050;-17
2022/04/19 02:12:01;;;;;;;0.30;0.30;;;19.70;56.90;;;;;;4967002;28;20047;-15
2022/04/19 02:14:27;;;;;;;0.30;0.20;;;19.70;57.00;;;;;;4978505;28;20133;-16
2022/04/19 02:16:53;;;;;;;0.40;0.20;;;19.70;57.00;;;;;;4986451;28;20046;-15
2022/04/19 02:19:19;;;;;;;0.40;0.22;;;19.70;57.00;;;;;;4982407;28;20118;-16
2022/04/19 02:21:45;;;;;;;0.25;0.22;;;19.70;57.60;;;;;;4978849;28;20051;-15
2022/04/19 02:24:11;;;;;;;0.30;0.20;;;19.70;57.00;;;;;;4988663;28;20070;-15
2022/04/19 02:26:36;;;;;;;0.25;0.20;;;19.60;57.00;;;;;;4975434;28;20042;-16
2022/04/19 02:29:02;;;;;;;0.43;0.20;;;19.60;57.00;;;;;;4978731;28;20038;-16
2022/04/19 02:31:28;;;;;;;0.30;0.20;;;19.60;57.00;;;;;;4978339;28;20057;-16
2022/04/19 02:33:54;;;;;;;0.73;0.28;;;19.60;57.00;;;;;;4987660;28;20069;-16
2022/04/19 02:36:21;;;;;;;2.38;0.38;;;19.60;57.10;;;;;;4997757;28;20053;-15
2022/04/19 02:38:46;;;;;;;0.22;0.22;;;19.60;57.00;;;;;;4998127;28;20042;-16
2022/04/19 02:41:12;;;;;;;0.50;0.25;;;19.60;57.00;;;;;;4978387;28;20051;-17
2022/04/19 02:43:38;;;;;;;0.40;0.30;;;19.60;57.00;;;;;;4978675;28;20452;-15
2022/04/19 02:46:04;;;;;;;0.22;0.20;;;19.60;57.00;;;;;;4966790;28;20057;-15
2022/04/19 02:48:30;;;;;;;0.47;0.30;;;19.60;57.00;;;;;;4978022;28;20094;-16
2022/04/19 02:50:56;;;;;;;0.40;0.40;;;19.70;57.10;;;;;;4978474;28;20046;-15
2022/04/19 02:53:22;;;;;;;0.20;0.10;;;19.60;57.10;;;;;;4980320;28;20049;-15
2022/04/19 02:55:48;;;;;;;0.30;0.20;;;19.70;57.20;;;;;;4997514;28;20046;-17
2022/04/19 02:58:14;;;;;;;0.10;0.10;;;19.60;57.10;;;;;;4997303;28;20035;-15
2022/04/19 03:00:39;;;;;;;0.28;0.28;;;19.60;57.10;;;;;;4996193;28;20106;-15
2022/04/19 03:03:05;;;;;;;0.10;0.10;;;19.60;57.20;;;;;;4996237;28;20039;-15
2022/04/19 03:05:33;;;;;;;0.28;0.28;;;19.60;57.10;;;;;;4997337;28;20047;-14
2022/04/19 03:07:59;;;;;;;0.25;0.20;;;19.60;57.10;;;;;;4980239;28;20440;-15
2022/04/19 03:10:24;;;;;;;0.30;0.20;;;19.50;57.10;;;;;;4976757;28;20109;-15
2022/04/19 03:12:51;;;;;;;0.10;0.10;;;19.50;57.20;;;;;;4994472;28;20104;-16
2022/04/19 03:15:18;;;;;;;0.20;0.20;;;19.60;57.20;;;;;;4977303;28;20047;-15
2022/04/19 03:17:43;;;;;;;0.20;0.20;;;19.50;57.20;;;;;;4977889;28;20051;-15
2022/04/19 03:20:11;;;;;;;0.20;0.13;;;19.50;57.20;;;;;;4978211;28;20053;-15
2022/04/19 03:28:05;;;;;;;0.70;0.22;;;19.50;57.20;;;;;;4958565;28;20094;-15
2022/04/19 03:30:30;;;;;;;0.20;0.20;;;19.50;57.20;;;;;;4992528;28;20183;-16
2022/04/19 03:32:56;;;;;;;0.17;0.17;;;19.50;57.30;;;;;;4997292;28;20515;-15
2022/04/19 03:35:22;;;;;;;0.28;0.28;;;19.60;57.20;;;;;;4983458;28;20047;-15
2022/04/19 03:37:47;;;;;;;0.20;0.20;;;19.50;57.10;;;;;;4977671;28;20110;-15
2022/04/19 03:40:14;;;;;;;0.40;0.20;;;19.60;57.20;;;;;;4977204;28;20146;-15
2022/04/19 03:42:41;;;;;;;0.30;0.30;;;19.50;57.20;;;;;;4977704;28;20125;-15
2022/04/19 03:45:08;;;;;;;0.10;0.10;;;19.50;57.10;;;;;;4992423;28;20057;-15
2022/04/19 03:47:35;;;;;;;0.20;0.20;;;19.50;57.20;;;;;;4990928;28;20070;-16
2022/04/19 03:50:00;;;;;;;0.20;0.20;;;19.50;57.30;;;;;;4977395;28;20045;-17
2022/04/19 03:52:26;;;;;;;0.35;0.20;;;19.50;57.40;;;;;;4982064;28;20121;-15
2022/04/19 03:54:52;;;;;;;0.25;0.25;;;19.50;57.30;;;;;;4958091;28;20543;-16
2022/04/19 03:57:18;;;;;;;0.40;0.25;;;19.50;57.20;;;;;;4957523;28;20378;-15
2022/04/19 03:59:44;;;;;;;0.35;0.20;;;19.50;57.30;;;;;;4957582;28;20055;-15
2022/04/19 04:02:10;;;;;;;0.20;0.20;;;19.50;57.30;;;;;;4969319;28;20045;-15
2022/04/19 04:04:36;;;;;;;0.30;0.20;;;19.50;57.20;;;;;;4976739;28;20559;-15
2022/04/19 04:07:06;;;;;;;0.30;0.22;;;19.50;57.30;;;;;;4977086;28;20097;-15
2022/04/19 04:09:37;;;;;;;0.38;0.20;;;19.50;57.30;;;;;;4976555;28;20051;-16
2022/04/19 04:12:12;;;;;;;0.22;0.22;;;19.50;57.30;;;;;;4977035;28;20125;-15
2022/04/19 04:14:41;;;;;;;0.30;0.20;;;19.50;57.40;;;;;;4987296;28;20418;-15
2022/04/19 04:17:06;;;;;;;0.10;0.10;;;19.50;57.30;;;;;;4996242;28;20130;-15
2022/04/19 04:19:32;;;;;;;0.22;0.20;;;19.50;57.30;;;;;;4975075;28;20078;-15
2022/04/19 04:21:58;;;;;;;0.28;0.20;;;19.50;57.30;;;;;;4992205;28;20086;-15
2022/04/19 04:24:23;;;;;;;0.25;0.25;;;19.50;57.30;;;;;;4995682;28;20046;-15
2022/04/19 04:26:49;;;;;;;0.25;0.20;;;19.40;57.40;;;;;;4996355;28;20046;-14
2022/04/19 04:29:14;;;;;;;0.20;0.20;;;19.40;57.30;;;;;;4993894;28;20053;-16
2022/04/19 04:31:40;;;;;;;0.20;0.15;;;19.40;57.40;;;;;;4996233;28;20137;-15
2022/04/19 04:34:06;;;;;;;0.10;0.10;;;19.40;57.40;;;;;;4975861;28;20058;-17
2022/04/19 04:36:32;;;;;;;0.40;0.20;;;19.40;57.40;;;;;;4969534;28;20126;-15
2022/04/19 04:38:57;;;;;;;0.20;0.20;;;19.50;57.40;;;;;;4976688;28;20500;-15
2022/04/19 04:41:23;;;;;;;0.10;0.10;;;19.50;57.30;;;;;;4975323;28;20582;-15
2022/04/19 04:43:48;;;;;;;0.43;0.10;;;19.40;57.30;;;;;;4976291;28;20046;-17
2022/04/19 04:51:43;;;;;;;;;;;19.40;57.30;;;;;;4987766;28;20124;-16
2022/04/19 04:54:08;;;;;;;0.25;0.20;;;19.40;57.30;;;;;;4963504;28;19918;-17
2022/04/19 04:56:34;;;;;;;0.17;0.17;;;19.40;57.40;;;;;;5026123;28;20499;-15
2022/04/19 04:58:59;;;;;;;0.20;0.17;;;19.40;57.40;;;;;;4995822;28;20046;-15
2022/04/19 05:01:25;;;;;;;0.40;0.20;;;19.40;57.40;;;;;;5010364;28;20046;-15
2022/04/19 05:03:51;;;;;;;0.10;0.10;;;19.40;57.50;;;;;;4976516;28;20047;-15
2022/04/19 05:06:16;;;;;;;0.10;0.10;;;19.40;57.40;;;;;;4976514;28;20062;-16
2022/04/19 05:08:42;;;;;;;0.13;0.10;;;19.40;57.40;;;;;;4971638;28;20134;-15
2022/04/19 05:11:07;;;;;;;0.20;0.20;;;19.40;57.40;;;;;;4964153;28;20047;-15
2022/04/19 05:13:33;;;;;;;0.43;0.20;;;19.40;57.50;;;;;;4971513;28;20050;-16
2022/04/19 05:15:59;;;;;;;0.10;0.10;;;19.30;57.80;;;;;;4978535;28;20070;-15
2022/04/19 05:18:25;;;;;;;0.17;0.17;;;19.30;57.80;;;;;;4988702;28;20049;-15
2022/04/19 05:20:51;;;;;;;0.40;0.20;;;19.30;58.10;;;;;;4977928;28;20051;-14
2022/04/19 05:23:16;;;;;;;2.53;0.20;;;19.30;58.30;;;;;;4978660;28;20042;-15
2022/04/19 05:25:42;;;;;;;1.50;0.20;;;19.40;58.20;;;;;;4979481;28;20054;-15
2022/04/19 05:28:07;;;;;;;0.65;0.30;;;19.40;58.90;;;;;;4988304;28;20047;-15
2022/04/19 05:30:33;;;;;;;1.67;0.35;;;19.30;59.30;;;;;;4980063;28;20559;-15
2022/04/19 05:32:59;;;;;;;1.33;0.30;;;19.30;60.50;;;;;;4978732;28;20047;-15
2022/04/19 05:35:24;;;;;;;3.80;0.40;;;19.30;59.50;;;;;;4979304;28;20524;-15
2022/04/19 05:37:50;;;;;;;0.95;0.50;;;19.30;59.40;;;;;;4979367;28;20070;-15
2022/04/19 05:40:15;;;;;;;0.98;0.30;;;19.30;59.60;;;;;;4996392;28;20053;-15
2022/04/19 05:42:41;;;;;;;0.70;0.30;;;19.40;59.60;;;;;;4990265;28;20054;-15
2022/04/19 05:45:07;;;;;;;0.88;0.50;;;19.40;59.50;;;;;;4978612;28;20070;-15
2022/04/19 05:47:33;;;;;;;0.60;0.30;;;19.30;59.50;;;;;;4996536;28;20057;-15
2022/04/19 05:49:58;;;;;;;0.82;0.30;;;19.30;59.30;;;;;;4991926;28;20039;-16
2022/04/19 05:52:24;;;;;;;1.13;0.57;;;19.40;58.90;;;;;;4985076;28;20053;-15
2022/04/19 05:54:49;;;;;;;0.88;0.43;;;19.20;58.90;;;;;;4990186;28;20050;-15
2022/04/19 05:57:15;;;;;;;0.35;0.30;;;19.30;58.90;;;;;;4979217;28;20075;-15
2022/04/19 05:59:40;;;;;;;0.55;0.40;;;19.40;58.70;;;;;;4996904;28;20054;-15
2022/04/19 06:04:53;;;;;;;0.60;0.40;;;19.30;58.50;;;;;;4970723;28;20054;-16
2022/04/19 06:07:26;;;;;;;2.40;0.40;;;19.40;58.50;;;;;;4964722;28;20058;-19
2022/04/19 06:09:52;;;;;;;1.33;0.55;;;19.40;58.70;;;;;;4978657;28;20506;-18
2022/04/19 06:12:17;;;;;;;2.35;0.43;;;19.30;58.70;;;;;;4975660;28;20554;-16
2022/04/19 06:14:43;;;;;;;1.95;0.57;;;19.30;58.70;;;;;;4977101;28;20039;-16
2022/04/19 06:17:13;;;;;;;1.75;0.32;;;19.30;58.80;;;;;;4975749;28;20109;-16
2022/04/19 06:19:39;;;;;;;0.43;0.30;;;19.30;58.70;;;;;;4991982;28;20076;-17
2022/04/19 06:22:05;;;;;;;1.02;0.50;;;19.40;58.80;;;;;;4998369;28;20058;-16
2022/04/19 06:24:30;;;;;;;1.88;0.20;;;19.40;58.70;;;;;;4997989;28;20534;-16
2022/04/19 06:26:56;;;;;;;1.30;0.50;;;19.40;58.70;;;;;;4997421;28;20050;-16
2022/04/19 06:29:21;;;;;;;1.08;0.30;;;19.30;58.60;;;;;;4981339;28;20574;-17
2022/04/19 06:31:47;;;;;;;0.90;0.22;;;19.30;58.60;;;;;;4976458;28;20073;-16
2022/04/19 06:34:13;;;;;;;0.77;0.30;;;19.30;58.70;;;;;;4977550;28;20038;-16
2022/04/19 06:36:39;;;;;;;0.50;0.32;;;19.30;58.50;;;;;;4978229;28;20511;-16
2022/04/19 06:39:04;;;;;;;0.20;0.20;;;19.30;58.60;;;;;;4978962;28;20110;-16
2022/04/19 06:41:30;;;;;;;0.40;0.22;;;19.30;58.60;;;;;;4980692;28;20042;-16
2022/04/19 06:43:58;;;;;;;0.70;0.40;;;19.30;58.60;;;;;;4998052;28;20495;-16
2022/04/19 06:46:26;;;;;;;3.90;0.40;;;19.30;58.50;;;;;;4997572;28;20430;-18
2022/04/19 06:48:56;;;;;;;8.98;0.63;;;19.30;58.60;;;;;;4996814;28;20046;-16
2022/04/19 06:51:22;;;;;;;0.45;0.20;;;19.30;58.50;;;;;;4995276;28;20050;-16
2022/04/19 06:53:48;;;;;;;0.35;0.22;;;19.30;58.50;;;;;;4996297;28;20507;-16
2022/04/19 06:56:14;;;;;;;0.70;0.40;;;19.30;58.50;;;;;;4998086;28;20042;-16
2022/04/19 06:58:40;;;;;;;2.40;0.55;;;19.30;58.50;;;;;;4977302;28;20045;-16
2022/04/19 07:01:06;;;;;;;0.68;0.38;;;19.30;58.40;;;;;;4978595;28;20047;-17
2022/04/19 07:03:33;;;;;;;0.60;0.30;;;19.40;58.50;;;;;;4976642;28;20400;-16
2022/04/19 07:05:59;;;;;;;1.00;0.40;;;19.40;58.40;;;;;;4991128;28;20046;-16
2022/04/19 07:08:24;;;;;;;1.90;0.30;;;19.40;58.40;;;;;;4994303;28;20065;-16
2022/04/19 07:10:50;;;;;;;0.60;0.30;;;19.40;58.30;;;;;;4986930;28;20075;-16
2022/04/19 07:13:16;;;;;;;1.65;0.40;;;19.40;58.20;;;;;;4975989;28;20041;-15
2022/04/19 07:15:41;;;;;;;0.55;0.47;;;19.60;57.30;;;;;;4976461;28;20097;-15
2022/04/19 07:18:07;;;;;;;0.70;0.38;;;21.30;54.90;;;;;;4987701;28;20038;-15
2022/04/19 07:28:45;;;;;;;1.08;0.60;;;27.80;38.80;;;;;;4624547;28;9999911;-19
2022/04/19 07:31:12;;;;;;;1.10;0.57;;;24.30;43.20;;;;;;4973643;28;20050;-16
2022/04/19 07:33:39;;;;;;;1.75;0.77;;;21.50;48.70;;;;;;4979786;28;20077;-15
2022/04/19 07:36:06;;;;;;;1.63;0.60;;;20.30;52.10;;;;;;4975524;28;20497;-15
2022/04/19 07:38:31;;;;;;;1.38;0.77;;;19.50;54.40;;;;;;4976508;28;20053;-15
2022/04/19 07:40:57;;;;;;;1.00;0.40;;;19.20;55.80;;;;;;4977275;28;20078;-15
2022/04/19 07:43:23;;;;;;;1.45;0.52;;;19.10;56.40;;;;;;4975286;28;20070;-15
2022/04/19 07:45:49;;;;;;;0.90;0.50;;;19.10;56.70;;;;;;4960591;28;20441;-15
2022/04/19 07:48:15;;;;;;;2.75;0.75;;;19.20;57.00;;;;;;4976928;28;20046;-15
2022/04/19 07:50:42;;;;;;;0.80;0.40;;;19.50;56.50;;;;;;4976389;28;20114;-15
2022/04/19 07:53:08;;;;;;;0.45;0.38;;;19.70;56.60;;;;;;4976683;28;20047;-15
2022/04/19 07:55:34;;;;;;;0.70;0.30;;;19.70;56.80;;;;;;4993470;28;20108;-15
2022/04/19 07:57:59;;;;;;;0.70;0.40;;;19.80;56.40;;;;;;4996336;28;20518;-17
2022/04/19 08:00:27;;;;;;;1.08;0.50;;;19.80;56.60;;;;;;4996210;28;20054;-16
2022/04/19 08:02:54;;;;;;;0.22;0.22;;;19.90;56.70;;;;;;4973767;28;20050;-16
2022/04/19 08:05:20;;;;;;;1.25;0.30;;;19.90;56.50;;;;;;4979280;28;20526;-16
2022/04/19 08:07:48;;;;;;;0.45;0.30;;;19.80;56.80;;;;;;4995342;28;20412;-16
2022/04/19 08:10:13;;;;;;;0.70;0.32;;;19.70;56.90;;;;;;4995919;28;20063;-15
2022/04/19 08:12:39;;;;;;;0.68;0.30;;;19.80;56.90;;;;;;4993282;28;20038;-16
2022/04/19 08:15:05;;;;;;;2.17;0.35;;;19.80;56.80;;;;;;4983474;28;20133;-16
2022/04/19 08:17:32;;;;;;;2.05;0.30;;;19.80;56.90;;;;;;4995608;28;20050;-16
2022/04/19 08:19:58;;;;;;;0.60;0.40;;;19.70;56.90;;;;;;4977493;28;20081;-16
2022/04/19 08:22:24;;;;;;;1.20;0.20;;;19.70;56.90;;;;;;4976104;28;20098;-16
2022/04/19 08:24:49;;;;;;;0.30;0.30;;;19.70;57.00;;;;;;4981921;28;20061;-15
2022/04/19 08:27:16;;;;;;;0.57;0.30;;;19.70;57.00;;;;;;4992352;28;20059;-16
2022/04/19 08:29:43;;;;;;;1.58;0.40;;;19.70;57.10;;;;;;4975590;28;20534;-17
2022/04/19 08:32:09;;;;;;;0.90;0.40;;;19.70;57.00;;;;;;4978319;28;20047;-16
2022/04/19 08:34:34;;;;;;;0.57;0.45;;;19.70;57.00;;;;;;4975466;28;20078;-16
2022/04/19 08:37:02;;;;;;;0.40;0.38;;;19.70;57.00;;;;;;4975422;28;20062;-16
2022/04/19 08:39:28;;;;;;;0.90;0.13;;;19.70;57.00;;;;;;4976435;28;20051;-16
2022/04/19 08:41:54;;;;;;;0.30;0.17;;;19.70;57.00;;;;;;4983884;28;20050;-16
2022/04/19 08:44:19;;;;;;;0.45;0.25;;;19.70;57.00;;;;;;4992819;28;20050;-15
2022/04/19 08:46:45;;;;;;;0.57;0.30;;;19.70;57.00;;;;;;4993746;28;20046;-16
2022/04/19 08:49:10;;;;;;;1.65;0.32;;;19.70;56.80;;;;;;4994175;28;20038;-16
2022/04/19 08:51:37;;;;;;;0.93;0.30;;;19.70;56.80;;;;;;4975178;28;20054;-16
2022/04/19 08:59:31;;;;;;;0.63;0.40;;;19.80;57.40;;;;;;4963688;28;20061;-17
2022/04/19 09:01:57;;;;;;;0.50;0.20;;;19.70;57.10;;;;;;4956573;28;20122;-16
2022/04/19 09:04:24;;;;;;;0.55;0.20;;;19.70;57.00;;;;;;4956801;28;20051;-16
2022/04/19 09:06:54;;;;;;;0.98;0.30;;;19.80;57.00;;;;;;4968202;28;20042;-16
2022/04/19 09:09:27;;;;;;;0.45;0.20;;;19.70;57.10;;;;;;4958545;28;20129;-16
2022/04/19 09:11:54;;;;;;;0.40;0.32;;;19.70;57.20;;;;;;4960572;28;20075;-16
2022/04/19 09:14:19;;;;;;;0.38;0.20;;;19.70;57.40;;;;;;4970325;28;20039;-16
2022/04/19 09:16:45;;;;;;;0.22;0.22;;;19.70;57.20;;;;;;4956458;28;20084;-16
2022/04/19 09:19:31;;;;;;;0.55;0.20;;;19.80;57.10;;;;;;4956824;28;20098;-16
2022/04/19 09:21:57;;;;;;;0.30;0.20;;;19.80;57.10;;;;;;4955782;28;20051;-16
2022/04/19 09:24:23;;;;;;;0.43;0.25;;;19.80;57.10;;;;;;4955804;28;20051;-16
2022/04/19 09:26:49;;;;;;;0.30;0.22;;;19.80;57.10;;;;;;4955690;28;20102;-15
2022/04/19 09:29:24;;;;;;;0.20;0.20;;;19.80;57.00;;;;;;4956507;28;20047;-15
2022/04/19 09:31:52;;;;;;;0.38;0.20;;;19.80;56.80;;;;;;4960991;28;20106;-15
2022/04/19 09:34:31;;;;;;;1.17;0.65;;;19.90;56.80;;;;;;4975915;28;20043;-16
2022/04/19 09:37:10;;;;;;;0.73;0.30;;;19.90;56.70;;;;;;4958489;28;20053;-15
2022/04/19 09:39:44;;;;;;;0.38;0.17;;;19.90;56.60;;;;;;4960138;28;20070;-15
2022/04/19 09:42:12;;;;;;;0.20;0.17;;;20.00;56.60;;;;;;4975402;28;20167;-15
2022/04/19 09:44:44;;;;;;;0.30;0.20;;;20.00;56.60;;;;;;4957918;28;20278;-15
2022/04/19 09:47:11;;;;;;;0.70;0.40;;;19.90;56.70;;;;;;4955210;28;20051;-15
2022/04/19 09:49:53;;;;;;;0.20;0.20;;;19.90;56.70;;;;;;4958284;28;20100;-15
2022/04/19 09:52:21;;;;;;;0.30;0.20;;;19.80;56.80;;;;;;4974084;28;20053;-15
2022/04/19 09:55:03;;;;;;;0.30;0.20;;;19.80;56.90;;;;;;4955876;28;20095;-15
2022/04/19 09:57:35;;;;;;;0.50;0.30;;;19.80;56.90;;;;;;4956519;28;20090;-15
2022/04/19 10:00:01;;;;;;;0.20;0.15;;;19.80;57.00;;;;;;4955879;28;20105;-15
2022/04/19 10:10:42;;;;;;;1.05;0.45;;;19.80;57.10;;;;;;4984123;28;20143;-15
2022/04/19 10:13:07;;;;;;;0.10;0.10;;;19.80;57.00;;;;;;4964882;28;20055;-14
2022/04/19 10:15:34;;;;;;;0.82;0.17;;;19.90;56.90;;;;;;4978185;28;20082;-17
2022/04/19 10:18:00;;;;;;;0.10;0.10;;;19.90;56.70;;;;;;4978708;28;20864;-15
2022/04/19 10:20:32;;;;;;;0.25;0.20;;;20.00;56.50;;;;;;4966149;28;20063;-16
2022/04/19 10:23:05;;;;;;;0.20;0.20;;;20.10;56.50;;;;;;4957195;28;20055;-15
2022/04/19 10:25:40;;;;;;;0.28;0.10;;;20.00;56.50;;;;;;4959505;28;20039;-14
2022/04/19 10:28:07;;;;;;;0.40;0.15;;;20.00;56.50;;;;;;4959330;28;20074;-15
2022/04/19 10:30:34;;;;;;;0.28;0.20;;;20.10;56.50;;;;;;4959187;28;20053;-17
2022/04/19 10:33:00;;;;;;;0.63;0.20;;;20.10;56.50;;;;;;4973246;28;20405;-17
2022/04/19 10:35:26;;;;;;;0.17;0.10;;;20.10;56.40;;;;;;4957947;28;20496;-15
2022/04/19 10:38:20;;;;;;;0.20;0.15;;;20.20;56.30;;;;;;4958783;28;20417;-14
2022/04/19 10:40:49;;;;;;;0.25;0.20;;;20.20;56.30;;;;;;4971851;28;20054;-15
2022/04/19 10:43:15;;;;;;;0.77;0.32;;;20.20;56.30;;;;;;4977043;28;20054;-15
2022/04/19 10:45:40;;;;;;;0.15;0.10;;;20.20;56.30;;;;;;4966040;28;20520;-15
2022/04/19 10:48:07;;;;;;;0.10;0.10;;;20.20;56.30;;;;;;4973786;28;20039;-14
2022/04/19 10:50:39;;;;;;;0.30;0.20;;;20.20;56.30;;;;;;4968597;28;20510;-15
2022/04/19 10:53:11;;;;;;;0.52;0.10;;;20.20;56.40;;;;;;4976123;28;20042;-15
2022/04/19 10:55:41;;;;;;;0.20;0.10;;;20.20;56.40;;;;;;4977651;28;20097;-15
2022/04/19 10:58:17;;;;;;;0.17;0.17;;;20.20;56.30;;;;;;4969343;28;20054;-15
2022/04/19 11:00:53;;;;;;;0.28;0.20;;;20.20;56.30;;;;;;4958276;28;20046;-15
2022/04/19 11:03:40;;;;;;;0.10;0.10;;;20.20;56.30;;;;;;4967002;28;20046;-16
2022/04/19 11:06:31;;;;;;;0.40;0.22;;;20.20;56.40;;;;;;4974293;28;20053;-15
2022/04/19 11:09:21;;;;;;;0.22;0.10;;;20.20;56.40;;;;;;4957545;28;20116;-15
2022/04/19 11:11:48;;;;;;;0.15;0.13;;;20.20;56.40;;;;;;4976002;28;20511;-15
2022/04/19 11:14:18;;;;;;;0.20;0.15;;;20.20;56.50;;;;;;4977289;28;20125;-15
2022/04/19 11:16:44;;;;;;;0.20;0.20;;;20.20;56.60;;;;;;4965943;28;20055;-16
2022/04/19 11:19:15;;;;;;;0.20;0.20;;;20.20;56.60;;;;;;4958130;28;20067;-16
2022/04/19 11:21:58;;;;;;;0.50;0.20;;;20.20;56.50;;;;;;4956076;28;20062;-15
2022/04/19 11:25:01;;;;;;;0.25;0.17;;;20.20;56.50;;;;;;4958064;28;20039;-16
2022/04/19 11:28:02;;;;;;;0.35;0.10;;;20.20;56.50;;;;;;4957747;28;20047;-15
2022/04/19 11:30:28;;;;;;;0.40;0.10;;;20.20;56.60;;;;;;4917095;29;20054;-15
2022/04/19 11:32:58;;;;;;;0.20;0.10;;;20.20;56.60;;;;;;4948633;28;20500;-15
2022/04/19 11:35:24;;;;;;;0.20;0.20;;;20.20;56.60;;;;;;4973379;28;20063;-15
2022/04/19 11:37:49;;;;;;;0.40;0.10;;;20.20;56.60;;;;;;4957203;28;20046;-15
2022/04/19 11:48:32;;;;;;;0.10;0.10;;;20.20;56.70;;;;;;4957756;28;20054;-15
2022/04/19 11:51:11;;;;;;;0.13;0.10;;;20.20;56.60;;;;;;4969157;28;20039;-15
2022/04/19 11:53:37;;;;;;;0.20;0.20;;;20.20;56.50;;;;;;4957355;28;20050;-15
2022/04/19 11:56:03;;;;;;;0.08;0.08;;;20.30;56.50;;;;;;4957087;28;20047;-15
2022/04/19 11:58:29;;;;;;;0.10;0.10;;;20.20;56.50;;;;;;4957322;28;20054;-15
2022/04/19 12:00:58;;;;;;;0.20;0.20;;;20.30;56.50;;;;;;4957193;28;20114;-16
2022/04/19 12:03:28;;;;;;;0.10;0.10;;;20.30;56.50;;;;;;4939891;28;20043;-15
2022/04/19 12:05:55;;;;;;;1.20;0.10;;;20.30;56.50;;;;;;4973962;28;20046;-15
2022/04/19 12:08:37;;;;;;;0.10;0.10;;;20.30;56.50;;;;;;4976690;28;20488;-15
2022/04/19 12:11:04;;;;;;;0.20;0.20;;;20.30;56.50;;;;;;4972037;28;20054;-15
2022/04/19 12:13:30;;;;;;;0.30;0.13;;;20.30;56.50;;;;;;4965268;28;20039;-16
2022/04/19 12:15:55;;;;;;;0.10;0.10;;;20.30;56.40;;;;;;4971080;28;20529;-15
2022/04/19 12:18:31;;;;;;;0.25;0.08;;;20.30;56.40;;;;;;4957210;28;20039;-15
2022/04/19 12:20:57;;;;;;;0.17;0.10;;;20.30;56.40;;;;;;4956910;28;20107;-15
2022/04/19 12:23:23;;;;;;;0.22;0.10;;;20.30;56.50;;;;;;4956679;28;20047;-15
2022/04/19 12:26:07;;;;;;;0.30;0.28;;;20.30;56.60;;;;;;4957097;28;20047;-15
2022/04/19 12:28:41;;;;;;;0.28;0.10;;;20.20;56.60;;;;;;4956044;28;20091;-15
2022/04/19 12:31:07;;;;;;;0.15;0.10;;;20.20;56.60;;;;;;4969703;28;20082;-15
2022/04/19 12:33:34;;;;;;;0.20;0.13;;;20.30;56.50;;;;;;4974488;28;20042;-15
2022/04/19 12:36:00;;;;;;;0.10;0.10;;;20.40;56.40;;;;;;4975878;28;20027;-15
2022/04/19 12:38:30;;;;;;;0.20;0.20;;;20.40;56.30;;;;;;4967393;28;20074;-15
2022/04/19 12:40:56;;;;;;;0.25;0.10;;;20.40;56.30;;;;;;4619112;28;9999770;-15
2022/04/19 12:43:41;;;;;;;0.47;0.10;;;20.40;56.40;;;;;;4974987;28;20042;-15
2022/04/19 12:46:06;;;;;;;0.20;0.20;;;20.40;56.50;;;;;;4967970;28;20050;-15
2022/04/19 12:48:32;;;;;;;0.52;0.20;;;20.40;56.40;;;;;;4985421;28;20078;-19
2022/04/19 12:51:01;;;;;;;0.32;0.10;;;20.40;56.50;;;;;;4974546;28;20043;-17
2022/04/19 12:53:27;;;;;;;0.20;0.13;;;20.40;56.40;;;;;;4966802;28;20488;-16
2022/04/19 12:56:39;;;;;;;0.10;0.10;;;20.40;56.50;;;;;;4974026;28;20427;-16
2022/04/19 12:59:05;;;;;;;0.10;0.10;;;20.30;56.50;;;;;;4973791;28;20047;-16
2022/04/19 13:01:31;;;;;;;0.20;0.10;;;20.40;56.40;;;;;;4973683;28;20035;-17
2022/04/19 13:03:56;;;;;;;0.28;0.10;;;20.40;56.40;;;;;;4973186;28;20523;-21
2022/04/19 13:14:35;;;;;;;0.13;0.10;;;20.50;56.20;;;;;;4974195;28;19921;-16
2022/04/19 13:17:01;;;;;;;0.10;0.10;;;20.50;56.20;;;;;;4974798;28;20043;-16
2022/04/19 13:19:27;;;;;;;0.35;0.10;;;20.50;56.20;;;;;;4973308;28;20146;-16
2022/04/19 13:21:52;;;;;;;0.10;0.10;;;20.50;56.20;;;;;;4973653;28;20086;-16
2022/04/19 13:24:18;;;;;;;0.20;0.20;;;20.50;56.20;;;;;;4968880;28;20050;-16
2022/04/19 13:26:44;;;;;;;0.10;0.10;;;20.50;55.90;;;;;;4963542;28;20047;-15
2022/04/19 13:29:11;;;;;;;0.40;0.20;;;20.50;55.90;;;;;;4970657;28;20134;-16
2022/04/19 13:31:36;;;;;;;0.20;0.10;;;20.50;55.30;;;;;;4970914;28;20137;-17
2022/04/19 13:34:02;;;;;;;0.20;0.20;;;20.60;55.00;;;;;;4957778;28;20071;-17
2022/04/19 13:36:28;;;;;;;0.20;0.20;;;20.60;53.90;;;;;;4969417;28;20043;-16
2022/04/19 13:38:53;;;;;;;0.44;0.10;;;20.60;52.30;;;;;;4627584;28;10000727;-16
2022/04/19 13:41:19;;;;;;;0.32;0.10;;;20.50;52.20;;;;;;4964275;28;20050;-21
2022/04/19 13:43:45;;;;;;;0.28;0.13;;;20.50;52.80;;;;;;4970230;28;20082;-20
2022/04/19 13:46:11;;;;;;;0.68;0.30;;;20.50;52.70;;;;;;4968751;28;20039;-20